Creede, CO (81130)

4:40 AM MDT on August 30, 2015 (GMT -0600)
Rivercrest Acres | | Change Station
CLOSE
Current Station
Personal Weather Station
Location: Creede, CO
Elevation: 8800 ft
Nearby Weather Stations

Elev 8800 ft 37.81 °N, 106.96 °W | Updated 8 minutes ago

Clear
Clear
43.8 °F
Feels Like 41 °F
N
5.0
Wind Variable Wind from WSW
Gusts 5.0 mph

Today
High -- | Low -- °F
--% Chance of Precip.
Yesterday
High -- | Low -- °F
Precip. -- in
6:35 AM 7:40 PM
Full, 99% visible
Pressure 30.40 in
Visibility 10.0 miles
Clouds Clear
Windchill 41 °F
Dew Point 39 °F
Humidity 83%
Rainfall 0.00 in
Snow Depth Not available.
UV 0 out of 12
Pollen 10.40 out of 12
Air Quality Not available.
Flu Activity Not available.
METAR KPSO 301035Z AUTO 00000KT 10SM CLR 11/06 A3040 RMK AO2 T01110062
Pressure 30.40 in
Visibility 10.0 miles
Clouds Clear
Windchill 41 °F
Dew Point 39 °F
Humidity 83%
Rainfall 0.00 in
Snow Depth Not available.
UV 0 out of 12
Pollen 10.40 out of 12
Air Quality Not available.
Flu Activity Not available.
METAR KPSO 301035Z AUTO 00000KT 10SM CLR 11/06 A3040 RMK AO2 T01110062

10-Day Weather Forecast

×

Almanac

Astronomy

Aug. 30, 2015 Rise Set
Actual Time
Civil Twilight
Nautical Twilight
Astronomical Twilight
Moon
Length of Visible Light
Length of Day
Tomorrow will be .
, % of the Moon is Illuminated

Today's Extremes

State Highs State Lows

Community

WunderPhotos

Upload Photos

1,850,925 photos uploaded!

WunderBlogs® & News

Nearby

Air Quality

  Air Quality AQ Index Pollutant
Not available.

Snow Depth

Station Depth Elevation

Earthquake Activity

City Distance Mag. Time & Date
Minimum magnitude displayed is 2.5.

Coastal Water Temperatures

Place Temperature

Stations

Nearby Weather Stations

Station Location Temp. Windchill Dew Point Humidity Wind Precip. Elev Updated Type